Track Вяткина Марина

Time Latitude Longitude Accuracy (66% radius in meters) Altitude (meters) Speed (km/hour) Bearing (degrees) Battery (%) GPS flag
09:26:52 60.370922 29.556306 16 71 0 200.04284667969 62 1 delete
09:26:40 60.370896 29.556282 6 78 0 118.48492431641 62 1 delete
09:26:28 60.370905 29.556193 12 92 0 20.871162414551 62 1 delete
09:26:26 60.370910 29.556185 16 95 0 20.871162414551 62 1 delete
09:26:15 60.370910 29.556205 8 89 0 49.485656738281 62 1 delete
09:26:07 60.370936 29.556261 12 87 0 49.485656738281 62 1 delete
09:26:02 60.370960 29.556308 8 78 0 49.485656738281 62 1 delete
09:25:56 60.370964 29.556341 8 70 0.35381689667702 33.03104019165 62 1 delete
09:25:49 60.370941 29.556340 8 55 0 212.02348327637 62 1 delete
09:25:44 60.370918 29.556324 16 49 0 212.02348327637 62 1 delete
09:25:35 60.370885 29.556274 8 67 0 212.02348327637 62 1 delete
09:25:22 60.370905 29.556249 12 75 0 230.58340454102 62 1 delete
09:25:18 60.370896 29.556234 24 70 0 230.58340454102 62 1 delete
09:25:09 60.370928 29.556296 6 84 0 228.24356079102 62 1 delete
09:25:08 60.370932 29.556299 8 84 0 228.24356079102 62 1 delete
09:24:54 60.370995 29.556335 6 76 0.047844968736172 116.24725341797 62 1 delete
09:24:43 60.370982 29.556317 12 74 0 274.45053100586 62 1 delete
09:24:39 60.370976 29.556312 12 77 0.49281817674637 274.45053100586 62 1 delete
09:24:31 60.370980 29.556392 6 79 0 216.81295776367 62 1 delete
09:24:25 60.370974 29.556407 4 84 0 27.538536071777 62 1 delete
09:24:18 60.370925 29.556351 8 82 0 27.538536071777 62 1 delete
09:24:05 60.370916 29.556359 8 78 0 27.538536071777 62 1 delete
09:23:53 60.370910 29.556332 4 81 0 27.538536071777 62 1 delete
09:23:40 60.370927 29.556336 6 75 0 27.538536071777 62 1 delete
09:23:27 60.370953 29.556334 12 72 0 27.538536071777 62 1 delete
09:23:14 60.370952 29.556345 4 73 0 27.538536071777 62 1 delete
09:23:09 60.370935 29.556353 6 73 0 27.538536071777 62 1 delete
09:23:00 60.370907 29.556308 6 73 0 27.538536071777 62 1 delete
09:22:55 60.370900 29.556292 8 72 0 27.538536071777 62 1 delete
09:22:47 60.370925 29.556339 8 71 0 34.962879180908 62 1 delete
09:22:45 60.370934 29.556353 12 71 0 219.70538330078 62 1 delete
09:22:34 60.370953 29.556434 8 72 0 219.70538330078 62 1 delete
09:22:22 60.370964 29.556459 4 74 0 199.11172485352 62 1 delete
09:22:09 60.370967 29.556419 6 76 0 199.11172485352 62 1 delete
09:21:56 60.370989 29.556411 6 76 0 199.11172485352 62 1 delete
09:21:43 60.370990 29.556417 4 77 0 199.11172485352 62 1 delete
09:21:30 60.370929 29.556468 8 80 0 199.11172485352 62 1 delete
09:21:17 60.370936 29.556429 6 82 0 38.561614990234 62 1 delete
09:21:09 60.370962 29.556436 8 78 0 38.561614990234 62 1 delete
09:21:04 60.370990 29.556466 6 79 0 38.561614990234 62 1 delete
09:20:51 60.370978 29.556443 12 84 0 218.6544342041 62 1 delete
09:20:39 60.371009 29.556466 4 87 0 211.35258483887 62 1 delete
09:20:27 60.371014 29.556408 6 85 0 211.35258483887 62 1 delete
09:20:17 60.371010 29.556409 4 83 0 211.35258483887 62 1 delete
09:20:14 60.370993 29.556395 4 80 0 211.35258483887 62 1 delete
09:20:01 60.370980 29.556392 4 81 0 211.35258483887 62 1 delete
09:19:47 60.370973 29.556393 6 75 0 211.35258483887 62 1 delete
09:19:35 60.370981 29.556386 6 76 0 211.35258483887 62 1 delete
09:19:24 60.370964 29.556373 4 76 0 211.35258483887 62 1 delete
09:19:22 60.370957 29.556371 4 75 0 211.35258483887 62 1 delete